createdAt,value
2018-03-23T00:02:06.403Z,90.47
2018-03-23T00:04:34.650Z,91.27
2018-03-23T00:07:02.908Z,95.43
2018-03-23T00:09:31.128Z,99.73
2018-03-23T00:12:00.142Z,96.90
2018-03-23T00:14:28.612Z,96.23
2018-03-23T00:16:57.646Z,99.17
2018-03-23T00:19:25.914Z,101.70
2018-03-23T00:21:54.282Z,101.90
2018-03-23T00:24:22.543Z,106.60
2018-03-23T00:26:50.853Z,97.67
2018-03-23T00:29:19.137Z,99.70
2018-03-23T00:31:47.498Z,93.33
2018-03-23T00:34:15.761Z,105.87
2018-03-23T00:36:44.036Z,95.27
2018-03-23T00:39:12.314Z,100.37
2018-03-23T00:41:40.607Z,107.13
2018-03-23T00:44:08.923Z,114.97
2018-03-23T00:46:37.167Z,107.40
2018-03-23T00:49:05.424Z,111.90
2018-03-23T00:51:33.979Z,116.90
2018-03-23T00:54:02.997Z,107.80
2018-03-23T00:56:31.356Z,111.83
2018-03-23T00:58:59.634Z,104.53
2018-03-23T01:01:27.946Z,124.73
2018-03-23T01:03:56.219Z,113.07
2018-03-23T01:06:24.482Z,110.53
2018-03-23T01:08:52.752Z,112.07
2018-03-23T01:11:21.020Z,113.30
2018-03-23T01:13:49.319Z,119.20
2018-03-23T01:16:17.587Z,124.17
2018-03-23T01:18:45.855Z,111.43
2018-03-23T01:21:14.270Z,126.00
2018-03-23T01:23:42.542Z,124.00
2018-03-23T01:26:10.834Z,119.03
2018-03-23T01:28:39.060Z,101.47
2018-03-23T01:31:07.332Z,120.50
2018-03-23T01:33:35.582Z,113.73
2018-03-23T01:36:03.895Z,126.80
2018-03-23T01:38:32.193Z,113.63
2018-03-23T01:41:00.438Z,104.50
2018-03-23T01:43:28.709Z,114.47
2018-03-23T01:45:56.956Z,125.93
2018-03-23T01:48:25.297Z,117.57
2018-03-23T01:50:54.347Z,122.67
2018-03-23T01:53:34.766Z,139.57
2018-03-23T01:56:03.758Z,101.03
2018-03-23T01:58:32.010Z,109.90
2018-03-23T02:01:00.262Z,111.97
2018-03-23T02:03:28.547Z,104.33
2018-03-23T02:05:56.782Z,110.93
2018-03-23T02:08:25.012Z,117.90
2018-03-23T02:10:54.041Z,107.53
2018-03-23T02:13:22.426Z,105.23
2018-03-23T02:15:50.687Z,127.97
2018-03-23T02:18:18.940Z,125.37
2018-03-23T02:20:47.965Z,128.10
2018-03-23T02:23:16.205Z,120.43
2018-03-23T02:25:45.251Z,120.90
2018-03-23T02:28:13.494Z,128.40
2018-03-23T02:30:41.787Z,117.93
2018-03-23T02:33:10.052Z,128.40
2018-03-23T02:35:38.331Z,123.00
2018-03-23T02:38:07.464Z,116.60
2018-03-23T02:40:35.743Z,131.10
2018-03-23T02:43:04.061Z,128.77
2018-03-23T02:45:32.311Z,130.00
2018-03-23T02:48:01.351Z,122.80
2018-03-23T02:50:29.604Z,122.47
2018-03-23T02:52:57.897Z,127.50
2018-03-23T02:55:26.173Z,139.53
2018-03-23T02:57:54.448Z,126.93
2018-03-23T03:00:22.712Z,120.70
2018-03-23T03:02:50.981Z,120.53
2018-03-23T03:05:19.320Z,123.27
2018-03-23T03:07:48.372Z,122.67
2018-03-23T03:10:16.644Z,128.10
2018-03-23T03:12:45.070Z,127.83
2018-03-23T03:15:14.193Z,125.47
2018-03-23T03:17:42.478Z,118.10
2018-03-23T03:20:10.800Z,125.23
2018-03-23T03:22:39.831Z,121.57
2018-03-23T03:25:08.114Z,128.37
2018-03-23T03:27:36.391Z,121.07
2018-03-23T03:30:04.696Z,116.37
2018-03-23T03:32:32.959Z,108.23
2018-03-23T03:35:01.239Z,113.20
2018-03-23T03:37:29.529Z,109.27
2018-03-23T03:39:57.826Z,108.00
2018-03-23T03:42:26.146Z,110.90
2018-03-23T03:44:54.473Z,114.43
2018-03-23T03:47:22.736Z,122.67
2018-03-23T03:49:51.092Z,116.97
2018-03-23T03:52:19.395Z,118.07
2018-03-23T03:54:47.751Z,108.10
2018-03-23T03:57:16.011Z,98.10
2018-03-23T03:59:44.359Z,102.50
2018-03-23T04:02:13.390Z,107.97
2018-03-23T04:04:41.699Z,103.20
2018-03-23T04:07:09.967Z,98.17
2018-03-23T04:09:38.271Z,93.90
2018-03-23T04:12:06.543Z,90.50
2018-03-23T04:14:35.575Z,88.87
2018-03-23T04:17:03.863Z,88.17
2018-03-23T04:19:32.125Z,75.47
2018-03-23T04:22:00.415Z,84.47
2018-03-23T04:24:28.686Z,81.20
2018-03-23T04:26:56.949Z,75.80
2018-03-23T04:29:25.207Z,69.23
2018-03-23T04:31:53.491Z,66.03
2018-03-23T04:34:21.733Z,66.10
2018-03-23T04:36:50.770Z,66.77
2018-03-23T04:39:19.019Z,61.13
2018-03-23T04:41:47.296Z,61.70
2018-03-23T04:44:15.594Z,59.90
2018-03-23T04:46:43.889Z,59.80
2018-03-23T04:49:12.146Z,58.80
2018-03-23T04:51:40.411Z,52.03
2018-03-23T04:54:08.687Z,52.70
2018-03-23T04:56:37.075Z,48.70
2018-03-23T04:59:05.368Z,55.87
2018-03-23T05:01:33.620Z,56.40
2018-03-23T05:04:02.058Z,56.00
2018-03-23T05:06:31.133Z,54.53
2018-03-23T05:09:00.910Z,50.27
2018-03-23T05:11:29.154Z,49.43
2018-03-23T05:13:57.423Z,53.40
2018-03-23T05:16:25.823Z,49.60
2018-03-23T05:18:54.172Z,56.63
2018-03-23T05:21:22.418Z,47.47
2018-03-23T05:23:50.703Z,46.57
2018-03-23T05:26:19.091Z,55.40
2018-03-23T05:28:47.356Z,49.13
2018-03-23T05:31:15.631Z,56.50
2018-03-23T05:33:43.919Z,54.07
2018-03-23T05:36:12.187Z,48.90
2018-03-23T05:38:40.514Z,38.93
2018-03-23T05:41:08.825Z,45.70
2018-03-23T05:43:37.053Z,37.93
2018-03-23T05:46:05.472Z,43.80
2018-03-23T05:48:33.716Z,40.77
2018-03-23T05:51:02.084Z,43.70
2018-03-23T05:53:30.415Z,38.93
2018-03-23T05:55:58.667Z,44.07
2018-03-23T05:58:26.924Z,39.50
2018-03-23T06:00:55.200Z,34.50
2018-03-23T06:03:23.507Z,38.07
2018-03-23T06:05:51.803Z,31.97
2018-03-23T06:08:20.365Z,39.27
2018-03-23T06:10:48.648Z,35.70
2018-03-23T06:13:16.938Z,33.70
2018-03-23T06:15:45.960Z,46.63
2018-03-23T06:18:14.313Z,38.13
2018-03-23T06:20:43.369Z,34.90
2018-03-23T06:23:11.685Z,38.37
2018-03-23T06:25:40.706Z,36.60
2018-03-23T06:28:09.081Z,41.83
2018-03-23T06:30:37.350Z,34.70
2018-03-23T06:33:05.650Z,40.00
2018-03-23T06:35:33.953Z,37.20
2018-03-23T06:38:02.229Z,40.57
2018-03-23T06:40:30.468Z,41.03
2018-03-23T06:42:58.981Z,35.83
2018-03-23T06:45:28.044Z,36.03
2018-03-23T06:47:56.306Z,34.80
2018-03-23T06:50:24.630Z,33.40
2018-03-23T06:52:52.896Z,32.20
2018-03-23T06:55:21.166Z,34.37
2018-03-23T06:57:49.449Z,31.47
2018-03-23T07:00:17.732Z,38.43
2018-03-23T07:02:46.208Z,39.70
2018-03-23T07:05:14.454Z,30.27
2018-03-23T07:07:42.715Z,36.77
2018-03-23T07:10:10.983Z,35.93
2018-03-23T07:12:39.240Z,35.73
2018-03-23T07:15:07.527Z,30.27
2018-03-23T07:17:35.781Z,31.67
2018-03-23T07:20:04.044Z,32.80
2018-03-23T07:22:33.084Z,33.87
2018-03-23T07:25:01.419Z,31.07
2018-03-23T07:27:29.675Z,31.57
2018-03-23T07:29:57.948Z,28.90
2018-03-23T07:32:26.235Z,27.70
2018-03-23T07:34:54.807Z,32.80
2018-03-23T07:37:23.039Z,35.30
2018-03-23T07:39:51.357Z,34.13
2018-03-23T07:42:19.604Z,27.17
2018-03-23T07:44:47.866Z,26.70
2018-03-23T07:47:16.131Z,30.33
2018-03-23T07:49:44.374Z,29.93
2018-03-23T07:52:13.395Z,27.83
2018-03-23T07:54:41.851Z,25.53
2018-03-23T07:57:10.125Z,29.23
2018-03-23T07:59:38.392Z,32.37
2018-03-23T08:02:07.419Z,24.73
2018-03-23T08:04:35.742Z,32.47
2018-03-23T08:07:04.089Z,29.37
2018-03-23T08:09:32.323Z,25.20
2018-03-23T08:12:00.614Z,31.07
2018-03-23T08:14:28.846Z,25.47
2018-03-23T08:16:57.876Z,27.37
2018-03-23T08:19:26.177Z,32.33
2018-03-23T08:21:54.449Z,31.57
2018-03-23T08:24:22.726Z,27.77
2018-03-23T08:26:50.991Z,28.90
2018-03-23T08:29:19.294Z,25.93
2018-03-23T08:31:49.076Z,25.50
2018-03-23T08:34:17.354Z,26.87
2018-03-23T08:36:45.607Z,23.23
2018-03-23T08:39:13.883Z,24.03
2018-03-23T08:41:42.158Z,22.70
2018-03-23T08:44:10.451Z,28.73
2018-03-23T08:46:38.829Z,27.57
2018-03-23T08:49:07.116Z,23.70
2018-03-23T08:51:35.393Z,21.77
2018-03-23T08:54:03.696Z,22.47
2018-03-23T08:56:32.067Z,23.03
2018-03-23T08:59:00.397Z,23.00
2018-03-23T09:01:28.654Z,21.57
2018-03-23T09:03:57.684Z,20.80
2018-03-23T09:06:26.011Z,21.87
2018-03-23T09:08:54.377Z,21.87
2018-03-23T09:11:22.620Z,23.67
2018-03-23T09:13:50.921Z,21.57
2018-03-23T09:16:19.166Z,22.57
2018-03-23T09:18:47.438Z,20.80
2018-03-23T09:21:15.707Z,15.60
2018-03-23T09:23:44.091Z,23.27
2018-03-23T09:26:12.346Z,21.83
2018-03-23T09:28:40.596Z,22.27
2018-03-23T09:31:08.989Z,18.13
2018-03-23T09:33:37.377Z,21.20
2018-03-23T09:36:05.652Z,20.73
2018-03-23T09:38:33.984Z,21.00
2018-03-23T09:41:02.367Z,19.80
2018-03-23T09:43:31.412Z,21.07
2018-03-23T09:45:59.699Z,22.23
2018-03-23T09:48:28.002Z,18.10
2018-03-23T09:50:56.311Z,20.03
2018-03-23T09:53:24.585Z,20.23
2018-03-23T09:55:52.851Z,20.40
2018-03-23T09:58:21.116Z,21.63
2018-03-23T10:00:49.381Z,18.27
2018-03-23T10:03:17.630Z,15.57
2018-03-23T10:05:45.939Z,14.07
2018-03-23T10:08:15.037Z,17.83
2018-03-23T10:10:43.304Z,16.80
2018-03-23T10:13:11.740Z,20.23
2018-03-23T10:15:40.022Z,20.63
2018-03-23T10:18:08.307Z,20.97
2018-03-23T10:20:36.563Z,18.33
2018-03-23T10:23:04.841Z,19.60
2018-03-23T10:25:33.126Z,20.63
2018-03-23T10:28:01.383Z,20.20
2018-03-23T10:30:29.688Z,14.70
2018-03-23T10:32:57.960Z,18.10
2018-03-23T10:35:26.329Z,18.73
2018-03-23T10:37:55.295Z,18.77
2018-03-23T10:40:23.552Z,18.63
2018-03-23T10:42:51.799Z,16.23
2018-03-23T10:45:20.079Z,16.97
2018-03-23T10:47:49.132Z,13.13
2018-03-23T10:50:17.399Z,12.37
2018-03-23T10:52:45.776Z,15.33
2018-03-23T10:55:14.084Z,12.37
2018-03-23T10:57:42.284Z,14.83
2018-03-23T11:00:11.337Z,11.70
2018-03-23T11:02:39.575Z,14.43
2018-03-23T11:05:07.833Z,15.13
2018-03-23T11:07:36.128Z,16.90
2018-03-23T11:10:04.384Z,13.97
2018-03-23T11:12:32.663Z,13.37
2018-03-23T11:15:00.924Z,13.07
2018-03-23T11:17:29.957Z,15.57
2018-03-23T11:19:58.359Z,16.27
2018-03-23T11:22:26.640Z,16.50
2018-03-23T11:24:54.908Z,13.93
2018-03-23T11:27:23.156Z,10.80
2018-03-23T11:29:51.432Z,13.17
2018-03-23T11:32:19.703Z,14.23
2018-03-23T11:34:47.940Z,16.20
2018-03-23T11:37:16.989Z,12.87
2018-03-23T11:39:45.261Z,12.10
2018-03-23T11:42:13.665Z,14.10
2018-03-23T11:44:41.907Z,14.33
2018-03-23T11:47:10.311Z,13.20
2018-03-23T11:49:39.344Z,17.77
2018-03-23T11:52:07.616Z,13.47
2018-03-23T11:54:35.898Z,15.20
2018-03-23T11:57:04.916Z,12.70
2018-03-23T11:59:33.158Z,11.00
2018-03-23T12:02:01.448Z,12.07
2018-03-23T12:04:30.428Z,15.90
2018-03-23T12:06:58.716Z,15.40
2018-03-23T12:09:26.982Z,16.50
2018-03-23T12:11:55.251Z,17.67
2018-03-23T12:14:23.513Z,14.80
2018-03-23T12:16:52.580Z,13.70
2018-03-23T12:19:20.845Z,14.47
2018-03-23T12:21:49.118Z,17.47
2018-03-23T12:24:17.390Z,12.90
2018-03-23T12:26:47.510Z,14.83
2018-03-23T12:29:15.962Z,16.80
2018-03-23T12:31:44.207Z,12.30
2018-03-23T12:34:13.529Z,11.77
2018-03-23T12:36:41.778Z,13.67
2018-03-23T12:39:10.964Z,14.43
2018-03-23T12:41:39.207Z,12.03
2018-03-23T12:44:07.487Z,11.37
2018-03-23T12:46:35.819Z,13.80
2018-03-23T12:49:04.100Z,12.47
2018-03-23T12:51:32.416Z,11.97
2018-03-23T12:54:00.694Z,13.77
2018-03-23T12:56:28.968Z,14.27
2018-03-23T12:58:57.355Z,9.63
2018-03-23T13:01:25.630Z,13.87
2018-03-23T13:03:53.869Z,11.33
2018-03-23T13:06:22.132Z,8.30
2018-03-23T13:08:50.414Z,7.63
2018-03-23T13:11:18.659Z,7.83
2018-03-23T13:13:46.951Z,9.13
2018-03-23T13:16:15.207Z,7.73
2018-03-23T13:18:43.477Z,9.77
2018-03-23T13:21:12.511Z,9.27
2018-03-23T13:23:40.778Z,8.43
2018-03-23T13:26:09.096Z,10.90
2018-03-23T13:28:37.338Z,8.63
2018-03-23T13:31:05.786Z,14.47
2018-03-23T13:33:34.010Z,9.17
2018-03-23T13:36:02.327Z,9.70
2018-03-23T13:38:30.585Z,12.00
2018-03-23T13:40:59.612Z,12.43
2018-03-23T13:43:27.870Z,9.57
2018-03-23T13:45:56.139Z,8.83
2018-03-23T13:48:25.147Z,11.87
2018-03-23T13:50:53.439Z,9.53
2018-03-23T13:53:21.716Z,11.57
2018-03-23T13:55:50.017Z,10.07
2018-03-23T13:58:18.267Z,11.80
2018-03-23T14:00:46.543Z,11.00
2018-03-23T14:03:14.820Z,11.70
2018-03-23T14:05:43.081Z,13.50
2018-03-23T14:08:11.421Z,14.40
2018-03-23T14:10:40.483Z,12.67
2018-03-23T14:13:09.022Z,14.43
2018-03-23T14:15:37.295Z,15.77
2018-03-23T14:18:05.586Z,14.07
2018-03-23T14:20:33.857Z,11.47
2018-03-23T14:23:02.294Z,12.83
2018-03-23T14:25:31.397Z,16.10
2018-03-23T14:28:00.436Z,16.20
2018-03-23T14:30:28.779Z,15.90
2018-03-23T14:32:57.078Z,16.40
2018-03-23T14:35:25.802Z,19.97
2018-03-23T14:37:54.302Z,21.03
2018-03-23T14:40:22.594Z,21.70
2018-03-23T14:42:51.708Z,23.07
2018-03-23T14:45:20.031Z,22.37
2018-03-23T14:47:48.267Z,24.10
2018-03-23T14:50:16.604Z,20.40
2018-03-23T14:52:45.026Z,25.93
2018-03-23T14:55:13.328Z,21.97
2018-03-23T14:57:43.178Z,22.87
2018-03-23T15:00:11.498Z,25.30
2018-03-23T15:02:39.769Z,25.30
2018-03-23T15:05:08.025Z,25.27
2018-03-23T15:07:36.300Z,22.20
2018-03-23T15:10:04.568Z,27.50
2018-03-23T15:12:32.847Z,22.97
2018-03-23T15:15:01.125Z,21.90
2018-03-23T15:17:29.396Z,23.53
2018-03-23T15:19:57.684Z,22.70
2018-03-23T15:22:25.957Z,21.07
2018-03-23T15:24:54.223Z,22.20
2018-03-23T15:27:22.504Z,22.20
2018-03-23T15:29:50.799Z,21.97
2018-03-23T15:32:19.085Z,20.73
2018-03-23T15:34:47.426Z,23.60
2018-03-23T15:37:15.771Z,24.73
2018-03-23T15:39:44.819Z,22.70
2018-03-23T15:42:13.227Z,20.73
2018-03-23T15:44:41.479Z,18.17
2018-03-23T15:47:09.753Z,21.83
2018-03-23T15:49:38.293Z,21.13
2018-03-23T15:52:06.539Z,23.23
2018-03-23T15:54:35.578Z,23.43
2018-03-23T15:57:03.836Z,22.03
2018-03-23T15:59:32.102Z,21.73
2018-03-23T16:02:00.414Z,19.67
2018-03-23T16:04:28.684Z,23.63
2018-03-23T16:06:56.990Z,25.57
2018-03-23T16:09:25.253Z,22.13
2018-03-23T16:11:53.542Z,17.37
2018-03-23T16:14:23.046Z,23.23
2018-03-23T16:16:51.434Z,23.37
2018-03-23T16:19:19.707Z,22.67
2018-03-23T16:21:48.007Z,23.77
2018-03-23T16:24:16.275Z,24.17
2018-03-23T16:26:44.632Z,23.87
2018-03-23T16:29:12.909Z,19.47
2018-03-23T16:31:41.221Z,23.17
2018-03-23T16:34:09.474Z,18.07
2018-03-23T16:36:38.520Z,21.03
2018-03-23T16:39:06.810Z,17.93
2018-03-23T16:41:35.143Z,19.13
2018-03-23T16:44:03.407Z,21.77
2018-03-23T16:46:31.687Z,18.77
2018-03-23T16:49:00.035Z,19.37
2018-03-23T16:51:28.292Z,19.97
2018-03-23T16:53:56.668Z,23.70
2018-03-23T16:56:24.924Z,21.47
2018-03-23T16:58:53.297Z,17.73
2018-03-23T17:01:21.557Z,17.47
2018-03-23T17:03:49.924Z,16.20
2018-03-23T17:06:18.269Z,19.53
2018-03-23T17:08:46.581Z,19.20
2018-03-23T17:11:14.844Z,18.03
2018-03-23T17:13:43.119Z,18.40
2018-03-23T17:16:11.369Z,18.80
2018-03-23T17:18:40.444Z,18.63
2018-03-23T17:21:08.803Z,16.40
2018-03-23T17:23:37.185Z,19.63
2018-03-23T17:26:05.445Z,16.47
2018-03-23T17:28:33.784Z,21.43
2018-03-23T17:31:02.918Z,16.27
2018-03-23T17:33:31.202Z,15.90
2018-03-23T17:35:59.471Z,21.90
2018-03-23T17:38:27.735Z,18.60
2018-03-23T17:40:56.016Z,18.90
2018-03-23T17:43:24.294Z,21.77
2018-03-23T17:45:52.572Z,17.90
2018-03-23T17:48:20.876Z,23.30
2018-03-23T17:50:49.147Z,21.57
2018-03-23T17:53:17.435Z,18.63
2018-03-23T17:55:46.471Z,20.70
2018-03-23T17:58:14.731Z,21.83
2018-03-23T18:00:47.583Z,21.47
2018-03-23T18:03:17.349Z,18.00
2018-03-23T18:05:45.620Z,21.87
2018-03-23T18:08:13.928Z,19.03
2018-03-23T18:10:42.192Z,21.40
2018-03-23T18:13:10.467Z,22.77
2018-03-23T18:15:38.759Z,17.37
2018-03-23T18:18:07.040Z,21.53
2018-03-23T18:20:35.312Z,23.43
2018-03-23T18:23:03.587Z,21.03
2018-03-23T18:25:31.946Z,20.47
2018-03-23T18:28:00.215Z,18.20
2018-03-23T18:30:28.504Z,19.30
2018-03-23T18:32:56.804Z,22.93
2018-03-23T18:35:26.066Z,24.93
2018-03-23T18:37:54.380Z,21.80
2018-03-23T18:40:23.386Z,22.33
2018-03-23T18:42:51.722Z,22.73
2018-03-23T18:45:20.118Z,22.00
2018-03-23T18:47:49.191Z,24.13
2018-03-23T18:50:17.555Z,20.63
2018-03-23T18:52:45.892Z,21.97
2018-03-23T18:55:14.250Z,21.47
2018-03-23T18:57:42.670Z,19.67
2018-03-23T19:00:10.962Z,21.70
2018-03-23T19:02:39.305Z,22.87
2018-03-23T19:05:07.616Z,20.10
2018-03-23T19:07:35.986Z,19.00
2018-03-23T19:10:04.267Z,18.67
2018-03-23T19:12:32.667Z,19.67
2018-03-23T19:15:01.735Z,18.97
2018-03-23T19:17:29.991Z,16.27
2018-03-23T19:19:58.395Z,21.97
2018-03-23T19:22:26.735Z,19.53
2018-03-23T19:24:55.124Z,23.27
2018-03-23T19:27:23.441Z,17.97
2018-03-23T19:29:51.901Z,19.07
2018-03-23T19:32:20.351Z,21.13
2018-03-23T19:34:48.685Z,18.83
2018-03-23T19:37:17.009Z,18.53
2018-03-23T19:39:45.267Z,17.17
2018-03-23T19:42:13.640Z,19.73
2018-03-23T19:44:41.925Z,18.37
2018-03-23T19:47:10.191Z,18.40
2018-03-23T19:49:38.606Z,19.57
2018-03-23T19:52:06.873Z,19.70
2018-03-23T19:54:35.152Z,15.90
2018-03-23T19:57:03.451Z,16.70
2018-03-23T19:59:31.904Z,19.97
2018-03-23T20:02:00.229Z,16.97
2018-03-23T20:04:29.270Z,16.57
2018-03-23T20:06:57.537Z,15.97
2018-03-23T20:09:25.824Z,17.83
2018-03-23T20:11:54.138Z,15.30
2018-03-23T20:14:23.191Z,17.53
2018-03-23T20:16:51.443Z,19.27
2018-03-23T20:19:19.728Z,16.83
2018-03-23T20:21:47.985Z,17.63
2018-03-23T20:24:16.280Z,20.63
2018-03-23T20:26:44.580Z,17.20
2018-03-23T20:29:12.848Z,18.00
2018-03-23T20:31:41.317Z,15.17
2018-03-23T20:34:09.574Z,15.57
2018-03-23T20:36:37.892Z,17.83
2018-03-23T20:39:06.133Z,15.97
2018-03-23T20:41:34.379Z,17.37
2018-03-23T20:44:02.691Z,15.07
2018-03-23T20:46:31.156Z,14.20
2018-03-23T20:48:59.389Z,15.10
2018-03-23T20:51:27.659Z,13.63
2018-03-23T20:53:56.747Z,13.90
2018-03-23T20:56:25.814Z,16.10
2018-03-23T20:58:54.033Z,15.47
2018-03-23T21:01:23.050Z,16.80
2018-03-23T21:03:51.304Z,18.23
2018-03-23T21:06:20.332Z,19.67
2018-03-23T21:08:48.618Z,18.97
2018-03-23T21:11:16.983Z,16.27
2018-03-23T21:13:45.258Z,17.67
2018-03-23T21:16:13.537Z,17.00
2018-03-23T21:18:41.837Z,17.43
2018-03-23T21:21:10.122Z,15.10
2018-03-23T21:23:38.408Z,15.73
2018-03-23T21:26:06.738Z,15.93
2018-03-23T21:28:35.012Z,16.17
2018-03-23T21:31:03.264Z,15.33
2018-03-23T21:33:31.732Z,14.93
2018-03-23T21:36:00.772Z,16.47
2018-03-23T21:38:29.083Z,14.00
2018-03-23T21:40:58.149Z,15.00
2018-03-23T21:43:26.403Z,16.27
2018-03-23T21:45:54.682Z,16.10
2018-03-23T21:48:23.007Z,14.77
2018-03-23T21:50:51.213Z,16.40
2018-03-23T21:53:19.479Z,15.53
2018-03-23T21:55:47.746Z,14.60
2018-03-23T21:58:16.783Z,16.13
2018-03-23T22:00:45.034Z,15.47
2018-03-23T22:03:13.298Z,16.50
2018-03-23T22:05:41.577Z,14.93
2018-03-23T22:08:09.855Z,15.70
2018-03-23T22:10:38.903Z,16.50
2018-03-23T22:13:07.998Z,12.30
2018-03-23T22:15:36.610Z,14.47
2018-03-23T22:18:04.968Z,18.57
2018-03-23T22:20:33.405Z,18.40
2018-03-23T22:23:01.990Z,15.47
2018-03-23T22:25:30.322Z,14.93
2018-03-23T22:27:58.596Z,18.03
2018-03-23T22:30:26.878Z,17.93
2018-03-23T22:32:55.248Z,17.67
2018-03-23T22:35:23.555Z,17.90
2018-03-23T22:37:51.925Z,17.67
2018-03-23T22:40:20.964Z,17.23
2018-03-23T22:42:49.263Z,15.37
2018-03-23T22:45:17.631Z,16.43
2018-03-23T22:47:45.919Z,17.53
2018-03-23T22:50:14.228Z,17.80
2018-03-23T22:52:42.509Z,17.90
2018-03-23T22:55:10.795Z,17.33
2018-03-23T22:57:39.084Z,16.63
2018-03-23T23:00:07.345Z,17.60
2018-03-23T23:02:35.624Z,18.87
2018-03-23T23:05:03.891Z,20.47
2018-03-23T23:07:32.200Z,19.20
2018-03-23T23:10:00.446Z,18.47
2018-03-23T23:12:28.724Z,18.50
2018-03-23T23:14:57.020Z,20.73
2018-03-23T23:17:25.290Z,19.17
2018-03-23T23:19:54.318Z,17.50
2018-03-23T23:22:22.603Z,19.20
2018-03-23T23:24:50.876Z,18.30
2018-03-23T23:27:19.153Z,17.37
2018-03-23T23:29:47.462Z,18.57
2018-03-23T23:32:15.688Z,15.77
2018-03-23T23:34:43.958Z,19.47
2018-03-23T23:37:12.981Z,19.23
2018-03-23T23:39:41.256Z,20.77
2018-03-23T23:42:09.581Z,17.63
2018-03-23T23:44:37.843Z,17.07
2018-03-23T23:47:06.090Z,18.17
2018-03-23T23:49:34.456Z,18.87
2018-03-23T23:52:02.757Z,17.77
2018-03-23T23:54:31.032Z,20.43
2018-03-23T23:56:59.291Z,17.57
2018-03-23T23:59:27.736Z,18.30
